Terminal Aerodrome Forecast
Issued by NWS Los Angeles, CA

Home | Current Version | Previous Version | Text Only | Print | Product List | Glossary On
Versions: 1 2 3 4 5 6 7 8 9 10 11 12 13 14 15 16 17 18 19 20 21 22 23 24
000
FTUS46 KLOX 201700
TAFSMX
TAF
KSMX 201727Z 2018/2118 VRB03KT P6SM OVC009
     FM201900 30006KT P6SM SCT015
     FM202100 30014KT P6SM SCT250
     FM210300 31007KT P6SM BKN015
     FM210700 VRB03KT 3SM BR OVC005
     FM211300 VRB03KT 1SM BR OVC002
     FM211700 VRB03KT 4SM BR OVC004=

USA.gov is the U.S. government's official web portal to all federal, state and local government web resources and services.